Maersk Dunbar — A8GU7 — position and weather

sailwx.info

Track history (hours):
 
Tides and Currents Weather Stations Pressure Air Temp Water Temp Dewpoint Dewpoint Depression Visibility Wind Speed Wind Dir Waves Ship Positions

Maersk Dunbar

Last reported at 2017-Nov-19 17:00 UTC. Time now 2017-Nov-21 19:18 UTC.
Position N 36°06' W 075°06'.

Length 264 m; beam 32.3 m; draft 12.5 m.

Type: Ship (hazmat cat B). MMSI: 636090862.

Wind from 270 at 18 knots

Barometer 1004.0 mb
Air temperature 17.0 ° C
Visibility: greater than 10.8 NM
Dewpoint 9.4 ° C
Water temperature 15.0 ° C

Date/timePositionNaut miles runAvg speedWind from/ knotsBaromVisibWave heightAir tempDewpointWater temp
2017-Nov-19 17:00N 36°06' W 075°06'6112.2 270 / 181004.010.8 17.0 9.415.0
2017-Nov-19 12:01N 36°53' W 075°54'0 9.7
2017-Nov-19 12:00N 36°53' W 075°54'5 9.6
2017-Nov-19 11:30N 36°56' W 075°58'13016.4
2017-Nov-19 03:34N 39°04' W 076°24'215.1
2017-Nov-19 03:27N 39°06' W 076°24'613.7
2017-Nov-19 03:00N 39°11' W 076°28'510.9
2017-Nov-19 02:30N 39°15' W 076°34'1 1.2
2017-Nov-19 01:58N 39°15' W 076°33'0 0.0
2017-Nov-19 01:28N 39°15' W 076°33'0 0.0
2017-Nov-19 00:58N 39°15' W 076°33'0 0.0
2017-Nov-19 00:22N 39°15' W 076°33'0 0.0
2017-Nov-18 23:58N 39°15' W 076°33'0 0.0
2017-Nov-18 23:28N 39°15' W 076°33'0 0.0
2017-Nov-18 22:58N 39°15' W 076°33'0 0.0
2017-Nov-18 22:28N 39°15' W 076°33'0 0.0
2017-Nov-18 21:58N 39°15' W 076°33'0 0.0
2017-Nov-18 21:28N 39°15' W 076°33'0 0.0
2017-Nov-18 20:52N 39°15' W 076°33'0 0.0
2017-Nov-18 20:28N 39°15' W 076°33'0 0.0
2017-Nov-18 19:58N 39°15' W 076°33'0 0.0
2017-Nov-18 19:28N 39°15' W 076°33'0 0.0
2017-Nov-18 18:58N 39°15' W 076°33'0 0.0
2017-Nov-18 18:28N 39°15' W 076°33'0 0.0
2017-Nov-18 17:58N 39°15' W 076°33'0 0.0
2017-Nov-18 17:22N 39°15' W 076°33'0 0.0
2017-Nov-18 16:58N 39°15' W 076°33'0 0.0
2017-Nov-18 16:28N 39°15' W 076°33'0 0.0
2017-Nov-18 15:58N 39°15' W 076°33'0 0.0
2017-Nov-18 15:28N 39°15' W 076°33'0 0.0
2017-Nov-18 14:58N 39°15' W 076°33'0 0.0
2017-Nov-18 14:28N 39°15' W 076°33'0 0.0
2017-Nov-18 13:52N 39°15' W 076°33'0 0.0
2017-Nov-18 13:28N 39°15' W 076°33'0 0.0
2017-Nov-18 12:58N 39°15' W 076°33'0 0.0
2017-Nov-18 12:28N 39°15' W 076°33'0 0.0
2017-Nov-18 11:58N 39°15' W 076°33'0 0.0
2017-Nov-18 11:28N 39°15' W 076°33'0 0.0
2017-Nov-18 10:58N 39°15' W 076°33'0 0.0
2017-Nov-18 10:31N 39°15' W 076°33'1 2.7
2017-Nov-18 09:59N 39°14' W 076°33'3 6.9
2017-Nov-18 09:30N 39°12' W 076°29'5 9.8
2017-Nov-18 09:01N 39°09' W 076°25'1114.9
2017-Nov-18 08:14N 38°57' W 076°23'12416.7
2017-Nov-18 00:46N 36°55' W 075°55'19213.0
2017-Nov-17 09:57N 39°41' W 073°52'5011.4
2017-Nov-17 05:33N 40°31' W 073°59'117.2
2017-Nov-17 05:30N 40°31' W 073°60'713.4
2017-Nov-17 05:00N 40°37' W 074°03'3 6.6
2017-Nov-17 04:30N 40°39' W 074°07'2 4.5
2017-Nov-17 04:00N 40°39' W 074°10'1 1.6
2017-Nov-17 03:28N 40°39' W 074°11'0 0.0
2017-Nov-17 02:58N 40°39' W 074°11'0 0.0
2017-Nov-16 23:49N 40°39' W 074°11'0 0.0
2017-Nov-16 23:25N 40°39' W 074°11'0 0.0
2017-Nov-16 22:43N 40°39' W 074°11'0 0.0
2017-Nov-16 21:01N 40°39' W 074°11'0 0.2
2017-Nov-16 20:58N 40°39' W 074°11'0 0.0
2017-Nov-16 20:19N 40°39' W 074°11'0 0.0
2017-Nov-16 19:49N 40°39' W 074°11'0 0.0
2017-Nov-16 19:25N 40°39' W 074°11'0 0.0
2017-Nov-16 18:52N 40°39' W 074°11'0 0.0
2017-Nov-16 18:19N 40°39' W 074°11'0 0.0
2017-Nov-16 17:58N 40°39' W 074°11'0 0.0
2017-Nov-16 17:31N 40°39' W 074°11'0 0.0
2017-Nov-16 17:00N 40°39' W 074°11'0 0.0
2017-Nov-16 16:24N 40°39' W 074°11'0 0.0
2017-Nov-16 12:17N 40°39' W 074°11'0 1.3
2017-Nov-16 12:00N 40°39' W 074°11'3 5.5
2017-Nov-16 11:30N 40°39' W 074°07'2 4.7
2017-Nov-16 11:00N 40°39' W 074°04'2 4.6
2017-Nov-16 10:30N 40°37' W 074°03'2 5.0
2017-Nov-16 10:00N 40°35' W 074°02'  
2017-Nov-14 03:05N 26°14' W 079°53'219.9
2017-Nov-14 02:59N 26°13' W 079°54'918.5
2017-Nov-14 02:30N 26°07' W 080°01'5 9.2
2017-Nov-14 02:00N 26°06' W 080°06'1 2.8
2017-Nov-14 01:30N 26°04' W 080°07'0 0.2
2017-Nov-14 00:59N 26°04' W 080°07'0 0.0
2017-Nov-14 00:29N 26°04' W 080°07'0 0.0
2017-Nov-13 23:59N 26°04' W 080°07'0 0.0
2017-Nov-13 23:29N 26°04' W 080°07'0 0.0
2017-Nov-13 22:59N 26°04' W 080°07'0 0.0
2017-Nov-13 22:26N 26°04' W 080°07'0 0.0
2017-Nov-13 21:58N 26°04' W 080°07'42310.1
2017-Nov-12 04:00N 20°54' W 074°54'62518.0 050 / 91013.0 5.4 26.021.427.0
2017-Nov-10 17:10N 10°30' W 075°43'1413.6
2017-Nov-10 16:08N 10°19' W 075°34'111.2
2017-Nov-10 16:00N 10°19' W 075°33'4 7.9
2017-Nov-10 15:30N 10°23' W 075°31'  
Track history (hours):
 
Tides and Currents Weather Stations Pressure Air Temp Water Temp Dewpoint Dewpoint Depression Visibility Wind Speed Wind Dir Waves Ship Positions

Maersk Dunbar

Last reported at 2017-Nov-19 17:00 UTC. Time now 2017-Nov-21 19:18 UTC.
Position N 36°06' W 075°06'.

Length 264 m; beam 32.3 m; draft 12.5 m.

Type: Ship (hazmat cat B). MMSI: 636090862.

Wind from 270 at 18 knots

Barometer 1004.0 mb
Air temperature 17.0 ° C
Visibility: greater than 10.8 NM
Dewpoint 9.4 ° C
Water temperature 15.0 ° C

Date/timePositionNaut miles runAvg speedWind from/ knotsBaromVisibWave heightAir tempDewpointWater temp
2017-Nov-19 17:00N 36°06' W 075°06'6112.2 270 / 181004.010.8 17.0 9.415.0
2017-Nov-19 12:01N 36°53' W 075°54'0 9.7
2017-Nov-19 12:00N 36°53' W 075°54'5 9.6
2017-Nov-19 11:30N 36°56' W 075°58'13016.4
2017-Nov-19 03:34N 39°04' W 076°24'215.1
2017-Nov-19 03:27N 39°06' W 076°24'613.7
2017-Nov-19 03:00N 39°11' W 076°28'510.9
2017-Nov-19 02:30N 39°15' W 076°34'1 1.2
2017-Nov-19 01:58N 39°15' W 076°33'0 0.0
2017-Nov-19 01:28N 39°15' W 076°33'0 0.0
2017-Nov-19 00:58N 39°15' W 076°33'0 0.0
2017-Nov-19 00:22N 39°15' W 076°33'0 0.0
2017-Nov-18 23:58N 39°15' W 076°33'0 0.0
2017-Nov-18 23:28N 39°15' W 076°33'0 0.0
2017-Nov-18 22:58N 39°15' W 076°33'0 0.0
2017-Nov-18 22:28N 39°15' W 076°33'0 0.0
2017-Nov-18 21:58N 39°15' W 076°33'0 0.0
2017-Nov-18 21:28N 39°15' W 076°33'0 0.0
2017-Nov-18 20:52N 39°15' W 076°33'0 0.0
2017-Nov-18 20:28N 39°15' W 076°33'0 0.0
2017-Nov-18 19:58N 39°15' W 076°33'0 0.0
2017-Nov-18 19:28N 39°15' W 076°33'0 0.0
2017-Nov-18 18:58N 39°15' W 076°33'0 0.0
2017-Nov-18 18:28N 39°15' W 076°33'0 0.0
2017-Nov-18 17:58N 39°15' W 076°33'0 0.0
2017-Nov-18 17:22N 39°15' W 076°33'0 0.0
2017-Nov-18 16:58N 39°15' W 076°33'0 0.0
2017-Nov-18 16:28N 39°15' W 076°33'0 0.0
2017-Nov-18 15:58N 39°15' W 076°33'0 0.0
2017-Nov-18 15:28N 39°15' W 076°33'0 0.0
2017-Nov-18 14:58N 39°15' W 076°33'0 0.0
2017-Nov-18 14:28N 39°15' W 076°33'0 0.0
2017-Nov-18 13:52N 39°15' W 076°33'0 0.0
2017-Nov-18 13:28N 39°15' W 076°33'0 0.0
2017-Nov-18 12:58N 39°15' W 076°33'0 0.0
2017-Nov-18 12:28N 39°15' W 076°33'0 0.0
2017-Nov-18 11:58N 39°15' W 076°33'0 0.0
2017-Nov-18 11:28N 39°15' W 076°33'0 0.0
2017-Nov-18 10:58N 39°15' W 076°33'0 0.0
2017-Nov-18 10:31N 39°15' W 076°33'1 2.7
2017-Nov-18 09:59N 39°14' W 076°33'3 6.9
2017-Nov-18 09:30N 39°12' W 076°29'5 9.8
2017-Nov-18 09:01N 39°09' W 076°25'1114.9
2017-Nov-18 08:14N 38°57' W 076°23'12416.7
2017-Nov-18 00:46N 36°55' W 075°55'19213.0
2017-Nov-17 09:57N 39°41' W 073°52'5011.4
2017-Nov-17 05:33N 40°31' W 073°59'117.2
2017-Nov-17 05:30N 40°31' W 073°60'713.4
2017-Nov-17 05:00N 40°37' W 074°03'3 6.6
2017-Nov-17 04:30N 40°39' W 074°07'2 4.5
2017-Nov-17 04:00N 40°39' W 074°10'1 1.6
2017-Nov-17 03:28N 40°39' W 074°11'0 0.0
2017-Nov-17 02:58N 40°39' W 074°11'0 0.0
2017-Nov-16 23:49N 40°39' W 074°11'0 0.0
2017-Nov-16 23:25N 40°39' W 074°11'0 0.0
2017-Nov-16 22:43N 40°39' W 074°11'0 0.0
2017-Nov-16 21:01N 40°39' W 074°11'0 0.2
2017-Nov-16 20:58N 40°39' W 074°11'0 0.0
2017-Nov-16 20:19N 40°39' W 074°11'0 0.0
2017-Nov-16 19:49N 40°39' W 074°11'0 0.0
2017-Nov-16 19:25N 40°39' W 074°11'0 0.0
2017-Nov-16 18:52N 40°39' W 074°11'0 0.0
2017-Nov-16 18:19N 40°39' W 074°11'0 0.0
2017-Nov-16 17:58N 40°39' W 074°11'0 0.0
2017-Nov-16 17:31N 40°39' W 074°11'0 0.0
2017-Nov-16 17:00N 40°39' W 074°11'0 0.0
2017-Nov-16 16:24N 40°39' W 074°11'0 0.0
2017-Nov-16 12:17N 40°39' W 074°11'0 1.3
2017-Nov-16 12:00N 40°39' W 074°11'3 5.5
2017-Nov-16 11:30N 40°39' W 074°07'2 4.7
2017-Nov-16 11:00N 40°39' W 074°04'2 4.6
2017-Nov-16 10:30N 40°37' W 074°03'2 5.0
2017-Nov-16 10:00N 40°35' W 074°02'  
2017-Nov-14 03:05N 26°14' W 079°53'219.9
2017-Nov-14 02:59N 26°13' W 079°54'918.5
2017-Nov-14 02:30N 26°07' W 080°01'5 9.2
2017-Nov-14 02:00N 26°06' W 080°06'1 2.8
2017-Nov-14 01:30N 26°04' W 080°07'0 0.2
2017-Nov-14 00:59N 26°04' W 080°07'0 0.0
2017-Nov-14 00:29N 26°04' W 080°07'0 0.0
2017-Nov-13 23:59N 26°04' W 080°07'0 0.0
2017-Nov-13 23:29N 26°04' W 080°07'0 0.0
2017-Nov-13 22:59N 26°04' W 080°07'0 0.0
2017-Nov-13 22:26N 26°04' W 080°07'0 0.0
2017-Nov-13 21:58N 26°04' W 080°07'42310.1
2017-Nov-12 04:00N 20°54' W 074°54'62518.0 050 / 91013.0 5.4 26.021.427.0
2017-Nov-10 17:10N 10°30' W 075°43'1413.6
2017-Nov-10 16:08N 10°19' W 075°34'111.2
2017-Nov-10 16:00N 10°19' W 075°33'4 7.9
2017-Nov-10 15:30N 10°23' W 075°31'  

Dump ship's entire track history